Magherafelt, United Kingdom
Current Conditions -  °F | °C
As of 11:50 AM on Sunday 21 Dec 2014 (Local Time) from EGAA Reporting Station
Broken Clouds Broken Clouds  
Wind Chill: 52°   Ceiling: 1600
Heat Index: 52°   Visibility: 6mi
Dew Point: 50°   Wind: 23mph
Humidity: 94%   Direction: 230°SW
Pressure: 29.94"   Gusts: NA
Location:  54.75°N, 6.61°W
Report Text: EGAA 211150Z 23020KT 9999 SCT011 BKN016 11/10 Q1014
Loading
Personal Weather Stations






























Interactive Weather Map New forecast layout! Learn more

10-Day Weather Forecast

Advertisements
Track Severe Weather on mobile